This is the latest recevied weather packets stored in our database for station/object AC2VK-1. If no packets are shown the sender has not sent any weather packets the latest 10 day(s).
| Time | Temp. | Humidity | Pressure | Rain* | Wind** | Luminosity | Snow |
|---|---|---|---|---|---|---|---|
| 1777897760 | 9.44° C | 80% | 1019.8 hPa | 0 mm | - | - | - |
| 1777897160 | 8.89° C | 82% | 1019.6 hPa | 0 mm | - | - | - |
| 1777896560 | 8.89° C | 82% | 1019.4 hPa | 0 mm | - | - | - |
| 1777895960 | 8.33° C | 81% | 1019.2 hPa | 0 mm | - | - | - |
| 1777895360 | 8.33° C | 81% | 1019.1 hPa | 0 mm | - | - | - |
| 1777894760 | 7.78° C | 82% | 1018.9 hPa | 0 mm | - | - | - |
| 1777894160 | 7.78° C | 81% | 1019 hPa | 0 mm | - | - | - |
| 1777893560 | 7.78° C | 80% | 1018.8 hPa | 0 mm | - | - | - |
| 1777892960 | 8.33° C | 79% | 1018.8 hPa | 0 mm | - | - | - |
| 1777892360 | 8.33° C | 79% | 1018.9 hPa | 0 mm | - | - | - |
| 1777891760 | 8.33° C | 78% | 1019.1 hPa | 0 mm | - | - | - |
| 1777891160 | 8.33° C | 79% | 1019.2 hPa | 0 mm | - | - | - |
| 1777890560 | 8.33° C | 79% | 1019.2 hPa | 0 mm | - | - | - |
| 1777889960 | 8.33° C | 79% | 1019.1 hPa | 0 mm | - | - | - |
| 1777889360 | 8.33° C | 78% | 1019.1 hPa | 0 mm | - | - | - |
| 1777888760 | 8.33° C | 79% | 1019.2 hPa | 0 mm | - | - | - |
| 1777888160 | 8.33° C | 78% | 1019.2 hPa | 0 mm | - | - | - |
| 1777887560 | 8.89° C | 76% | 1019.3 hPa | 0 mm | - | - | - |
| 1777886960 | 9.44° C | 73% | 1019.3 hPa | 0 mm | - | - | - |
| 1777886360 | 9.44° C | 73% | 1019.3 hPa | 0 mm | - | - | - |
| 1777885760 | 9.44° C | 73% | 1019.2 hPa | 0 mm | - | - | - |
| 1777885160 | 9.44° C | 73% | 1019.3 hPa | 0 mm | - | - | - |
| 1777884560 | 8.89° C | 75% | 1019.3 hPa | 0 mm | - | - | - |
| 1777883960 | 9.44° C | 76% | 1019.3 hPa | 0 mm | - | - | - |
| 1777883360 | 9.44° C | 74% | 1019.3 hPa | 0 mm | - | - | - |
* Rain latest hour (hover to see other rain measurements)
** Current wind speed in m/s (hover to see current wind gust speed)